createdAt,value
2018-11-10T00:02:20.951Z,27.58
2018-11-10T00:04:54.998Z,26.42
2018-11-10T00:07:27.461Z,26.20
2018-11-10T00:09:59.956Z,27.62
2018-11-10T00:12:33.035Z,29.12
2018-11-10T00:15:06.240Z,29.23
2018-11-10T00:17:40.441Z,26.48
2018-11-10T00:20:15.653Z,29.35
2018-11-10T00:22:51.084Z,26.10
2018-11-10T00:25:25.056Z,27.48
2018-11-10T00:27:59.923Z,25.75
2018-11-10T00:30:33.075Z,28.75
2018-11-10T00:33:08.089Z,26.95
2018-11-10T00:35:42.246Z,26.07
2018-11-10T00:38:17.027Z,27.25
2018-11-10T00:40:50.253Z,26.05
2018-11-10T00:43:28.889Z,25.32
2018-11-10T00:46:03.034Z,25.08
2018-11-10T00:48:37.147Z,27.95
2018-11-10T00:51:12.825Z,25.72
2018-11-10T00:53:47.613Z,26.30
2018-11-10T00:56:22.582Z,27.17
2018-11-10T00:58:57.829Z,26.85
2018-11-10T01:01:32.168Z,27.82
2018-11-10T01:04:06.899Z,33.13
2018-11-10T01:06:40.919Z,26.87
2018-11-10T01:09:13.755Z,28.75
2018-11-10T01:11:47.913Z,29.30
2018-11-10T01:14:21.570Z,25.55
2018-11-10T01:16:55.054Z,27.58
2018-11-10T01:19:29.469Z,25.77
2018-11-10T01:22:01.997Z,26.50
2018-11-10T01:24:35.600Z,25.68
2018-11-10T01:27:08.744Z,25.25
2018-11-10T01:29:43.922Z,25.17
2018-11-10T01:32:17.870Z,27.45
2018-11-10T01:34:50.262Z,27.85
2018-11-10T01:37:24.012Z,27.32
2018-11-10T01:39:57.057Z,27.45
2018-11-10T01:42:31.387Z,27.40
2018-11-10T01:45:05.211Z,26.35
2018-11-10T01:47:36.853Z,30.10
2018-11-10T01:57:13.416Z,28.23
2018-11-10T01:59:46.385Z,28.30
2018-11-10T02:02:27.761Z,29.82
2018-11-10T02:05:01.341Z,29.77
2018-11-10T02:07:33.264Z,27.52
2018-11-10T02:10:10.310Z,27.37
2018-11-10T02:12:44.202Z,27.00
2018-11-10T02:15:20.496Z,27.55
2018-11-10T02:17:54.552Z,28.98
2018-11-10T02:20:27.762Z,27.17
2018-11-10T02:23:03.967Z,28.35
2018-11-10T02:25:39.741Z,30.17
2018-11-10T02:28:13.652Z,31.05
2018-11-10T02:30:51.697Z,32.00
2018-11-10T02:33:24.669Z,31.65
2018-11-10T02:36:07.196Z,30.48
2018-11-10T02:38:43.787Z,30.32
2018-11-10T02:41:18.477Z,28.80
2018-11-10T02:43:56.608Z,31.50
2018-11-10T02:46:29.686Z,29.27
2018-11-10T02:49:03.960Z,31.05
2018-11-10T02:51:37.031Z,29.95
2018-11-10T02:54:10.117Z,27.95
2018-11-10T02:56:43.143Z,29.90
2018-11-10T02:59:18.872Z,29.77
2018-11-10T03:02:00.508Z,31.30
2018-11-10T03:04:44.010Z,31.80
2018-11-10T03:07:18.396Z,30.92
2018-11-10T03:09:53.151Z,30.55
2018-11-10T03:12:26.231Z,31.02
2018-11-10T03:15:01.637Z,28.77
2018-11-10T03:17:35.042Z,30.82
2018-11-10T03:20:09.131Z,30.30
2018-11-10T03:22:44.046Z,26.62
2018-11-10T03:25:19.262Z,31.65
2018-11-10T03:27:52.310Z,28.47
2018-11-10T03:30:25.527Z,26.85
2018-11-10T03:33:01.721Z,27.32
2018-11-10T03:35:35.754Z,29.87
2018-11-10T03:38:08.669Z,29.80
2018-11-10T03:40:43.026Z,28.52
2018-11-10T03:43:19.360Z,27.95
2018-11-10T03:45:54.403Z,27.98
2018-11-10T03:48:27.259Z,28.85
2018-11-10T03:51:06.657Z,30.17
2018-11-10T03:53:40.840Z,30.60
2018-11-10T03:56:22.595Z,31.42
2018-11-10T03:58:56.787Z,29.45
2018-11-10T04:01:29.852Z,30.23
2018-11-10T04:04:08.193Z,30.10
2018-11-10T04:06:42.379Z,28.90
2018-11-10T04:09:15.430Z,30.90
2018-11-10T04:11:48.211Z,27.13
2018-11-10T04:14:21.364Z,29.07
2018-11-10T04:16:55.076Z,29.23
2018-11-10T04:19:30.167Z,28.75
2018-11-10T04:22:04.148Z,28.32
2018-11-10T04:24:38.244Z,29.70
2018-11-10T04:27:11.311Z,27.02
2018-11-10T04:29:54.961Z,28.30
2018-11-10T04:32:30.035Z,26.80
2018-11-10T04:35:03.036Z,27.87
2018-11-10T04:37:40.890Z,25.95
2018-11-10T04:40:16.065Z,29.25
2018-11-10T04:42:53.441Z,28.70
2018-11-10T04:45:25.327Z,27.55
2018-11-10T04:47:58.859Z,27.40
2018-11-10T04:50:31.604Z,26.62
2018-11-10T04:53:02.771Z,28.47
2018-11-10T04:55:34.825Z,27.98
2018-11-10T04:58:08.612Z,25.52
2018-11-10T05:00:48.895Z,25.80
2018-11-10T05:03:22.126Z,25.20
2018-11-10T05:05:54.360Z,27.67
2018-11-10T05:08:29.956Z,27.67
2018-11-10T05:11:04.862Z,28.87
2018-11-10T05:13:37.956Z,28.87
2018-11-10T05:16:10.900Z,27.75
2018-11-10T05:18:44.700Z,27.22
2018-11-10T05:21:19.034Z,27.22
2018-11-10T05:23:52.167Z,26.07
2018-11-10T05:26:27.309Z,27.35
2018-11-10T05:29:01.467Z,28.55
2018-11-10T05:31:37.992Z,26.90
2018-11-10T05:34:12.269Z,26.97
2018-11-10T05:36:45.237Z,28.92
2018-11-10T05:39:18.351Z,27.87
2018-11-10T05:41:56.182Z,25.25
2018-11-10T05:44:29.355Z,26.52
2018-11-10T05:47:05.543Z,26.68
2018-11-10T05:49:48.792Z,27.30
2018-11-10T05:52:22.852Z,25.40
2018-11-10T05:54:56.895Z,26.57
2018-11-10T05:57:30.147Z,23.85
2018-11-10T06:00:03.071Z,25.88
2018-11-10T06:02:40.599Z,26.17
2018-11-10T06:05:14.948Z,27.32
2018-11-10T06:07:50.468Z,27.37
2018-11-10T06:10:23.926Z,26.75
2018-11-10T06:12:57.815Z,26.93
2018-11-10T06:15:30.556Z,25.25
2018-11-10T06:18:03.258Z,27.90
2018-11-10T06:20:35.801Z,25.88
2018-11-10T06:23:09.283Z,26.80
2018-11-10T06:25:41.818Z,26.82
2018-11-10T06:28:13.304Z,26.65
2018-11-10T06:30:44.826Z,27.67
2018-11-10T06:33:17.039Z,27.25
2018-11-10T06:35:48.653Z,26.42
2018-11-10T06:38:20.300Z,26.97
2018-11-10T06:40:55.996Z,25.43
2018-11-10T06:43:29.195Z,26.12
2018-11-10T06:46:02.226Z,25.55
2018-11-10T06:48:36.272Z,27.05
2018-11-10T06:51:10.462Z,27.07
2018-11-10T06:53:50.258Z,27.45
2018-11-10T06:56:23.216Z,25.75
2018-11-10T06:58:58.528Z,23.92
2018-11-10T07:01:31.653Z,26.60
2018-11-10T07:04:07.700Z,27.15
2018-11-10T07:06:41.211Z,27.98
2018-11-10T07:09:16.355Z,26.15
2018-11-10T07:11:59.212Z,27.75
2018-11-10T07:14:33.955Z,28.87
2018-11-10T07:17:06.817Z,25.60
2018-11-10T07:19:42.274Z,26.77
2018-11-10T07:22:16.542Z,27.60
2018-11-10T07:24:53.462Z,25.17
2018-11-10T07:27:28.205Z,24.40
2018-11-10T07:30:01.427Z,29.65
2018-11-10T07:32:34.891Z,25.08
2018-11-10T07:35:08.815Z,25.65
2018-11-10T07:37:43.020Z,25.95
2018-11-10T07:40:17.258Z,25.20
2018-11-10T07:42:50.724Z,25.52
2018-11-10T07:45:26.774Z,25.90
2018-11-10T07:47:59.816Z,26.00
2018-11-10T07:50:36.713Z,25.30
2018-11-10T07:53:09.624Z,23.55
2018-11-10T07:55:44.688Z,26.00
2018-11-10T07:58:23.755Z,26.15
2018-11-10T08:00:57.765Z,27.60
2018-11-10T08:03:32.517Z,28.83
2018-11-10T08:06:06.589Z,28.40
2018-11-10T08:08:40.762Z,25.30
2018-11-10T08:11:14.484Z,26.00
2018-11-10T08:13:49.766Z,26.60
2018-11-10T08:16:22.565Z,28.23
2018-11-10T08:18:55.748Z,26.60
2018-11-10T08:21:28.914Z,25.05
2018-11-10T08:24:02.696Z,26.50
2018-11-10T08:26:35.698Z,28.50
2018-11-10T08:29:11.570Z,26.45
2018-11-10T08:31:46.673Z,26.48
2018-11-10T08:34:21.716Z,26.15
2018-11-10T08:36:55.856Z,24.77
2018-11-10T08:39:36.120Z,26.97
2018-11-10T08:42:11.955Z,26.97
2018-11-10T08:44:46.013Z,27.98
2018-11-10T08:47:19.200Z,27.32
2018-11-10T08:49:53.753Z,26.62
2018-11-10T08:52:28.197Z,29.52
2018-11-10T08:55:05.123Z,26.93
2018-11-10T08:57:37.777Z,27.58
2018-11-10T09:00:12.649Z,28.00
2018-11-10T09:02:46.242Z,26.30
2018-11-10T09:05:19.672Z,27.05
2018-11-10T09:07:52.198Z,28.67
2018-11-10T09:10:26.733Z,30.32
2018-11-10T09:13:02.000Z,28.02
2018-11-10T09:15:35.095Z,28.17
2018-11-10T09:18:08.621Z,27.77
2018-11-10T09:20:43.700Z,27.77
2018-11-10T09:23:19.055Z,27.65
2018-11-10T09:25:52.176Z,26.40
2018-11-10T09:28:26.294Z,25.50
2018-11-10T09:30:59.931Z,27.10
2018-11-10T09:33:34.816Z,27.80
2018-11-10T09:36:09.452Z,25.95
2018-11-10T09:38:48.026Z,25.52
2018-11-10T09:41:22.877Z,25.30
2018-11-10T09:43:56.992Z,26.52
2018-11-10T09:46:30.424Z,25.45
2018-11-10T09:49:04.015Z,26.02
2018-11-10T09:51:37.646Z,25.95
2018-11-10T09:54:09.225Z,23.25
2018-11-10T09:56:41.657Z,27.75
2018-11-10T09:59:15.197Z,25.08
2018-11-10T10:01:48.173Z,23.12
2018-11-10T10:04:21.405Z,24.85
2018-11-10T10:06:53.585Z,21.25
2018-11-10T10:09:26.518Z,23.65
2018-11-10T10:12:00.110Z,25.77
2018-11-10T10:14:34.982Z,23.40
2018-11-10T10:17:10.900Z,23.45
2018-11-10T10:19:43.450Z,21.57
2018-11-10T10:22:16.240Z,23.57
2018-11-10T10:24:49.565Z,22.22
2018-11-10T10:27:22.279Z,21.97
2018-11-10T10:29:58.716Z,20.65
2018-11-10T10:32:32.407Z,20.70
2018-11-10T10:35:04.948Z,20.62
2018-11-10T10:37:38.768Z,20.97
2018-11-10T10:40:14.052Z,20.17
2018-11-10T10:42:47.617Z,19.40
2018-11-10T10:45:25.776Z,20.77
2018-11-10T10:47:59.813Z,21.37
2018-11-10T10:50:34.950Z,18.73
2018-11-10T10:53:08.941Z,19.60
2018-11-10T10:55:42.229Z,20.52
2018-11-10T10:58:15.299Z,21.12
2018-11-10T11:00:53.076Z,23.20
2018-11-10T11:03:31.858Z,23.25
2018-11-10T11:06:08.271Z,24.25
2018-11-10T11:08:42.593Z,20.80
2018-11-10T11:11:16.999Z,20.65
2018-11-10T11:13:52.205Z,19.02
2018-11-10T11:16:27.132Z,23.32
2018-11-10T11:19:04.872Z,20.40
2018-11-10T11:21:38.169Z,21.02
2018-11-10T11:24:11.525Z,20.82
2018-11-10T11:26:55.804Z,19.77
2018-11-10T11:29:30.549Z,18.50
2018-11-10T11:32:06.334Z,20.62
2018-11-10T11:34:41.581Z,19.45
2018-11-10T11:37:17.091Z,17.98
2018-11-10T11:39:50.982Z,18.20
2018-11-10T11:42:24.977Z,17.52
2018-11-10T11:44:59.112Z,18.45
2018-11-10T11:47:35.600Z,17.17
2018-11-10T11:50:14.974Z,18.90
2018-11-10T11:52:48.195Z,21.57
2018-11-10T11:55:21.896Z,18.62
2018-11-10T11:57:58.237Z,17.52
2018-11-10T12:00:37.054Z,19.55
2018-11-10T12:03:10.289Z,17.80
2018-11-10T12:05:44.993Z,17.57
2018-11-10T12:08:18.878Z,17.65
2018-11-10T12:10:53.556Z,17.80
2018-11-10T12:13:27.581Z,17.67
2018-11-10T12:16:00.971Z,16.37
2018-11-10T12:18:34.935Z,16.65
2018-11-10T12:21:09.420Z,16.90
2018-11-10T12:23:43.116Z,15.72
2018-11-10T12:28:55.729Z,16.05
2018-11-10T12:31:28.953Z,16.27
2018-11-10T12:34:01.977Z,16.85
2018-11-10T12:36:36.181Z,17.50
2018-11-10T12:39:10.425Z,18.57
2018-11-10T12:41:46.444Z,15.90
2018-11-10T12:44:23.336Z,17.02
2018-11-10T12:46:56.280Z,15.80
2018-11-10T12:49:28.473Z,15.80
2018-11-10T12:52:00.530Z,17.42
2018-11-10T12:54:33.573Z,16.07
2018-11-10T12:57:06.267Z,16.17
2018-11-10T12:59:39.543Z,15.05
2018-11-10T13:02:12.775Z,17.48
2018-11-10T13:04:45.593Z,15.28
2018-11-10T13:07:17.481Z,16.40
2018-11-10T13:09:50.035Z,17.37
2018-11-10T13:12:31.523Z,18.00
2018-11-10T13:15:04.516Z,16.87
2018-11-10T13:17:37.614Z,16.05
2018-11-10T13:20:13.519Z,16.27
2018-11-10T13:22:49.765Z,16.82
2018-11-10T13:25:25.524Z,15.65
2018-11-10T13:28:07.112Z,15.55
2018-11-10T13:30:40.208Z,16.05
2018-11-10T13:33:17.741Z,15.28
2018-11-10T13:35:52.092Z,14.68
2018-11-10T13:38:25.199Z,16.75
2018-11-10T13:41:00.320Z,17.92
2018-11-10T13:43:35.315Z,17.30
2018-11-10T13:46:08.131Z,15.20
2018-11-10T13:48:42.338Z,17.37
2018-11-10T13:51:15.373Z,16.57
2018-11-10T13:53:47.895Z,16.97
2018-11-10T13:56:20.103Z,14.83
2018-11-10T13:58:52.903Z,15.53
2018-11-10T14:01:26.619Z,16.12
2018-11-10T14:04:00.287Z,16.95
2018-11-10T14:06:37.617Z,16.40
2018-11-10T14:09:13.328Z,15.23
2018-11-10T14:11:47.841Z,16.57
2018-11-10T14:14:22.515Z,16.30
2018-11-10T14:16:55.620Z,16.52
2018-11-10T14:19:32.289Z,16.17
2018-11-10T14:22:06.814Z,15.68
2018-11-10T14:24:44.433Z,16.57
2018-11-10T14:27:17.341Z,15.80
2018-11-10T14:29:55.823Z,15.90
2018-11-10T14:32:29.016Z,17.25
2018-11-10T14:35:04.758Z,17.50
2018-11-10T14:37:42.647Z,15.23
2018-11-10T14:40:19.522Z,15.20
2018-11-10T14:42:53.314Z,16.50
2018-11-10T14:45:27.405Z,16.17
2018-11-10T14:48:01.568Z,16.40
2018-11-10T14:50:34.947Z,15.98
2018-11-10T14:53:09.197Z,14.87
2018-11-10T14:55:42.513Z,15.65
2018-11-10T14:58:16.022Z,14.38
2018-11-10T15:00:51.235Z,14.58
2018-11-10T15:03:26.039Z,15.28
2018-11-10T15:06:00.115Z,14.70
2018-11-10T15:08:35.165Z,15.45
2018-11-10T15:11:09.222Z,14.83
2018-11-10T15:13:43.749Z,14.75
2018-11-10T15:16:24.761Z,13.60
2018-11-10T15:19:02.505Z,13.55
2018-11-10T15:21:37.676Z,12.55
2018-11-10T15:24:19.065Z,12.70
2018-11-10T15:26:54.074Z,12.63
2018-11-10T15:29:27.293Z,13.20
2018-11-10T15:32:00.242Z,15.08
2018-11-10T15:34:38.846Z,14.13
2018-11-10T15:37:16.664Z,13.62
2018-11-10T15:39:51.469Z,13.50
2018-11-10T15:42:28.334Z,12.90
2018-11-10T15:45:03.265Z,13.22
2018-11-10T15:47:36.897Z,15.50
2018-11-10T15:50:13.892Z,14.05
2018-11-10T15:52:46.661Z,13.10
2018-11-10T15:55:20.951Z,15.03
2018-11-10T15:58:01.836Z,13.85
2018-11-10T16:00:36.440Z,15.50
2018-11-10T16:03:11.053Z,14.40
2018-11-10T16:05:44.536Z,13.22
2018-11-10T16:08:17.955Z,12.80
2018-11-10T16:10:50.581Z,12.73
2018-11-10T16:13:23.754Z,14.33
2018-11-10T16:15:56.960Z,12.82
2018-11-10T16:18:30.250Z,16.05
2018-11-10T16:21:04.185Z,28.60
2018-11-10T16:23:38.504Z,18.17
2018-11-10T16:26:12.521Z,19.70
2018-11-10T16:28:45.176Z,17.15
2018-11-10T16:31:19.092Z,20.35
2018-11-10T16:33:52.459Z,18.98
2018-11-10T16:36:26.484Z,18.32
2018-11-10T16:39:01.037Z,18.62
2018-11-10T16:41:34.402Z,18.57
2018-11-10T16:44:12.745Z,20.35
2018-11-10T16:46:50.582Z,18.00
2018-11-10T16:49:24.077Z,19.25
2018-11-10T16:52:00.694Z,17.80
2018-11-10T16:54:33.989Z,20.00
2018-11-10T16:57:07.081Z,19.80
2018-11-10T16:59:41.318Z,19.20
2018-11-10T17:02:14.917Z,19.85
2018-11-10T17:04:48.824Z,16.87
2018-11-10T17:07:23.893Z,15.72
2018-11-10T17:10:01.686Z,18.02
2018-11-10T17:12:35.317Z,15.38
2018-11-10T17:15:09.117Z,17.75
2018-11-10T17:17:46.120Z,15.90
2018-11-10T17:20:19.416Z,15.50
2018-11-10T17:22:53.587Z,14.75
2018-11-10T17:25:27.767Z,20.20
2018-11-10T17:28:00.529Z,18.75
2018-11-10T17:30:34.517Z,21.40
2018-11-10T17:33:16.412Z,21.90
2018-11-10T17:35:49.430Z,21.62
2018-11-10T17:38:22.980Z,20.82
2018-11-10T17:40:55.546Z,21.15
2018-11-10T17:43:29.090Z,19.32
2018-11-10T17:46:01.942Z,22.40
2018-11-10T17:48:34.926Z,29.37
2018-11-10T17:51:07.920Z,24.82
2018-11-10T17:53:40.816Z,23.55
2018-11-10T17:56:14.909Z,24.47
2018-11-10T17:58:47.793Z,23.30
2018-11-10T18:01:20.726Z,23.02
2018-11-10T18:03:53.555Z,22.05
2018-11-10T18:06:27.864Z,23.60
2018-11-10T18:09:01.952Z,22.05
2018-11-10T18:11:44.005Z,25.80
2018-11-10T18:14:16.669Z,25.85
2018-11-10T18:16:49.627Z,24.95
2018-11-10T18:19:22.417Z,26.00
2018-11-10T18:22:02.858Z,24.05
2018-11-10T18:24:35.912Z,23.85
2018-11-10T18:27:09.475Z,21.97
2018-11-10T18:29:42.497Z,23.85
2018-11-10T18:32:15.655Z,21.50
2018-11-10T18:34:49.625Z,23.57
2018-11-10T18:37:22.732Z,20.88
2018-11-10T18:39:55.620Z,22.73
2018-11-10T18:42:28.439Z,21.60
2018-11-10T18:45:01.355Z,22.58
2018-11-10T18:47:35.619Z,23.22
2018-11-10T18:50:12.107Z,22.90
2018-11-10T18:52:45.195Z,20.23
2018-11-10T18:55:19.334Z,21.55
2018-11-10T18:57:53.391Z,22.52
2018-11-10T19:00:27.398Z,21.10
2018-11-10T19:03:00.355Z,20.92
2018-11-10T19:05:33.320Z,20.57
2018-11-10T19:08:06.449Z,22.00
2018-11-10T19:10:39.684Z,22.90
2018-11-10T19:13:12.415Z,21.60
2018-11-10T19:15:45.844Z,22.00
2018-11-10T19:18:18.904Z,22.98
2018-11-10T19:20:51.747Z,22.02
2018-11-10T19:23:25.798Z,21.50
2018-11-10T19:26:00.630Z,21.85
2018-11-10T19:28:33.451Z,21.23
2018-11-10T19:31:07.106Z,21.07
2018-11-10T19:33:40.173Z,19.45
2018-11-10T19:36:13.258Z,21.65
2018-11-10T19:38:46.087Z,21.35
2018-11-10T19:41:28.135Z,20.68
2018-11-10T19:44:02.355Z,20.37
2018-11-10T19:46:36.357Z,19.45
2018-11-10T19:49:10.657Z,19.42
2018-11-10T19:51:43.815Z,18.67
2018-11-10T19:54:16.541Z,16.17
2018-11-10T19:56:49.620Z,16.17
2018-11-10T19:59:22.164Z,14.20
2018-11-10T20:01:57.520Z,16.17
2018-11-10T20:04:31.484Z,13.85
2018-11-10T20:07:05.627Z,14.10
2018-11-10T20:09:38.405Z,12.98
2018-11-10T20:12:11.978Z,13.38
2018-11-10T20:14:44.401Z,13.70
2018-11-10T20:17:17.120Z,14.15
2018-11-10T20:19:49.990Z,13.75
2018-11-10T20:22:22.685Z,14.30
2018-11-10T20:24:54.187Z,14.00
2018-11-10T20:27:25.464Z,14.80
2018-11-10T20:29:56.957Z,14.90
2018-11-10T20:32:28.572Z,16.93
2018-11-10T20:35:01.220Z,16.10
2018-11-10T20:37:34.767Z,15.63
2018-11-10T20:40:06.662Z,17.15
2018-11-10T20:42:39.716Z,18.00
2018-11-10T20:45:14.909Z,17.87
2018-11-10T20:47:47.668Z,17.17
2018-11-10T20:50:21.906Z,18.52
2018-11-10T20:52:54.671Z,18.40
2018-11-10T20:55:23.420Z,17.25
2018-11-10T20:57:52.080Z,17.27
2018-11-10T21:00:22.024Z,17.70
2018-11-10T21:02:50.781Z,17.25
2018-11-10T21:05:19.545Z,17.75
2018-11-10T21:07:48.317Z,17.85
2018-11-10T21:10:18.383Z,18.65
2018-11-10T21:12:47.757Z,17.23
2018-11-10T21:15:16.924Z,17.92
2018-11-10T21:17:50.355Z,17.73
2018-11-10T21:20:24.576Z,18.12
2018-11-10T21:22:57.790Z,20.97
2018-11-10T21:25:32.357Z,18.42
2018-11-10T21:28:06.107Z,19.70
2018-11-10T21:30:39.869Z,20.68
2018-11-10T21:33:13.403Z,19.40
2018-11-10T21:35:47.426Z,19.60
2018-11-10T21:38:21.104Z,18.98
2018-11-10T21:40:55.349Z,21.55
2018-11-10T21:43:35.899Z,21.62
2018-11-10T21:46:10.035Z,19.50
2018-11-10T21:48:48.335Z,22.13
2018-11-10T21:51:21.986Z,21.42
2018-11-10T21:53:57.285Z,20.37
2018-11-10T21:56:31.647Z,18.95
2018-11-10T21:59:04.970Z,18.02
2018-11-10T22:01:39.044Z,20.40
2018-11-10T22:04:16.842Z,18.82
2018-11-10T22:06:51.794Z,18.25
2018-11-10T22:09:26.056Z,18.05
2018-11-10T22:12:00.732Z,17.25
2018-11-10T22:14:33.669Z,16.65
2018-11-10T22:17:06.726Z,17.23
2018-11-10T22:19:39.835Z,16.00
2018-11-10T22:22:12.574Z,16.25
2018-11-10T22:24:46.116Z,17.05
2018-11-10T22:27:19.227Z,16.55
2018-11-10T22:29:51.883Z,16.55
2018-11-10T22:32:24.407Z,16.85
2018-11-10T22:34:57.311Z,17.80
2018-11-10T22:37:30.845Z,17.20
2018-11-10T22:40:05.133Z,14.68
2018-11-10T22:42:38.727Z,15.58
2018-11-10T22:45:13.986Z,17.07
2018-11-10T22:47:46.560Z,17.75
2018-11-10T22:50:20.450Z,19.42
2018-11-10T22:52:53.114Z,19.02
2018-11-10T22:55:28.125Z,19.30
2018-11-10T22:58:00.717Z,19.62
2018-11-10T23:00:32.916Z,19.25
2018-11-10T23:03:05.580Z,18.60
2018-11-10T23:05:38.955Z,19.37
2018-11-10T23:08:11.791Z,17.30
2018-11-10T23:10:44.854Z,18.07
2018-11-10T23:13:18.321Z,15.98
2018-11-10T23:15:52.974Z,17.52
2018-11-10T23:18:21.747Z,16.48
2018-11-10T23:20:50.612Z,16.87
2018-11-10T23:23:19.426Z,17.35
2018-11-10T23:25:54.427Z,17.40
2018-11-10T23:28:23.185Z,17.50
2018-11-10T23:30:51.900Z,18.30
2018-11-10T23:33:20.653Z,20.20
2018-11-10T23:35:49.401Z,26.85
2018-11-10T23:38:18.179Z,27.30
2018-11-10T23:40:46.991Z,26.20
2018-11-10T23:43:15.790Z,25.70
2018-11-10T23:45:44.532Z,24.27
2018-11-10T23:48:13.249Z,24.98
2018-11-10T23:50:42.020Z,25.65
2018-11-10T23:53:10.838Z,24.15
2018-11-10T23:55:39.653Z,23.60
2018-11-10T23:58:08.449Z,24.63
